Pagrindinis puslapis
METAR-TAF:

METAR-TAF

Oro uostai :

Bankokas-Suvarnabhumi, Tailandas

platuma: 13-40-52N, ilguma: 100-44-50E, Aukštis: 2 m

Dabartinis oras

Ataskaita buvo paskelbta 35 minutes, ne 01:30 UTC
Vėjas 9 kt iš Rytų/Šiaurės Rytų, svyruoja nuo Šiaurės/Šiaurės Rytų ir Rytų
Temperatūra 27°C
Drėgmė 62%
Slėgis 1014 hPa
Matomumas 10 km arba daugiau
Mažai debesys ne aukštis 2500 ft

METAR: VTBS 220130Z 07009KT 030V100 9999 FEW025 27/19 Q1014 NOSIG

Laikas: 09:05 (02:05 UTC)

Prognozė

Ataskaita buvo paskelbta 3 valandos ir 5 minutes, ne 23:00 UTC
Prognozė galioja nuo 22 metu 00 UTC su 23 metu 06 UTC
Vėjas 5 kt iš Rytų/Šiaurės Rytų
Matomumas 10 km arba daugiau
Mažai debesys ne aukštis 2500 ft

TAF: VTBS 212300Z 2200/2306 07005KT 9999 FEW025

Orai ataskaitas ir orų prognozės (METAR, TAF).

turimą stotys yra geltonos ir raudonos taškus žemėlapyje.

Perkelti pele per norėdami pamatyti stoties vardą.

Tada spustelėkite, norėdami matyti oro stebėjimo ir prognozės.

Norėdami pakeisti žemėlapį: spustelėkite ant žalios mygtukų su juodo kryžiaus žemyn,; žalią mygtuką su brūkšneliu, jei norite nutolinti; arba žalių rodyklių gretimoms žemėlapius.


METAR-TAF: